This is the latest recevied weather packets stored in our database for station/object KA3ZXO. If no packets are shown the sender has not sent any weather packets the latest 10 day(s).
| Time | Temp. | Humidity | Pressure | Rain* | Wind** | Luminosity | Snow |
|---|---|---|---|---|---|---|---|
| 1777952334 | 17.78° C | 53% | 1011.6 hPa | 0 mm | - | 0 W/m² | - |
| 1777951729 | 18.33° C | 52% | 1011.7 hPa | 0 mm | - | 0 W/m² | - |
| 1777951128 | 18.33° C | 52% | 1011.8 hPa | 0 mm | - | 0 W/m² | - |
| 1777950528 | 18.33° C | 52% | 1011.8 hPa | 0 mm | - | 0 W/m² | - |
| 1777949925 | 17.78° C | 53% | 1011.8 hPa | 0 mm | - | 0 W/m² | - |
| 1777949322 | 17.78° C | 52% | 1011.6 hPa | 0 mm | - | 0 W/m² | - |
| 1777948722 | 17.78° C | 53% | 1011.9 hPa | 0 mm | - | 0 W/m² | - |
| 1777948122 | 17.78° C | 54% | 1011.8 hPa | 0 mm | - | 0 W/m² | - |
| 1777947522 | 17.78° C | 55% | 1011.8 hPa | 0 mm | - | 0 W/m² | - |
| 1777946920 | 17.78° C | 57% | 1011.6 hPa | 0 mm | - | 0 W/m² | - |
| 1777946318 | 17.78° C | 56% | 1011.9 hPa | 0 mm | - | 0 W/m² | - |
| 1777945719 | 17.78° C | 56% | 1011.5 hPa | 0 mm | - | 0 W/m² | - |
| 1777945117 | 17.78° C | 56% | 1011.6 hPa | 0 mm | - | 0 W/m² | - |
| 1777944513 | 18.33° C | 54% | 1011.5 hPa | 0 mm | - | 0 W/m² | - |
| 1777943912 | 18.33° C | 53% | 1011.5 hPa | 0 mm | - | 0 W/m² | - |
| 1777943311 | 18.89° C | 52% | 1011.4 hPa | 0 mm | - | 0 W/m² | - |
| 1777942709 | 18.89° C | 50% | 1011.5 hPa | 0 mm | - | 0 W/m² | - |
| 1777942104 | 18.89° C | 49% | 1011.3 hPa | 0 mm | - | 0 W/m² | - |
| 1777941503 | 18.89° C | 49% | 1011.2 hPa | 0 mm | - | 0 W/m² | - |
| 1777940902 | 19.44° C | 48% | 1011.1 hPa | 0 mm | - | 0 W/m² | - |
| 1777940298 | 20.56° C | 45% | 1011.1 hPa | 0 mm | - | 0 W/m² | - |
| 1777939697 | 21.11° C | 43% | 1011.2 hPa | 0 mm | - | 0 W/m² | - |
| 1777939097 | 21.67° C | 41% | 1010.9 hPa | 0 mm | - | 1 W/m² | - |
| 1777938497 | 21.67° C | 40% | 1011 hPa | 0 mm | - | 3 W/m² | - |
| 1777937896 | 22.22° C | 39% | 1010.8 hPa | 0 mm | - | 6 W/m² | - |
* Rain latest hour (hover to see other rain measurements)
** Current wind speed in m/s (hover to see current wind gust speed)